»·PEaware :: N47406 KSNA-KHHR

N47406 :: KSNA-KHHR

FLIGHT INFORMATION

Flight Status: Arrived
Operator: Privately registered:
United States
More flights under this callsign
Pilot: Anonymous 8231 (8231)
Aircraft: PIPER PA-28 CHEROKEE ARCHER
(P28A)
More flights by this aircraft type
Origin: KSNA John Wayne-Orange Co
United States
Destination: KHHR Northrop/Hawthorne Mun
United States
More flights between these airports :: More routes between these airports
Route: +SLI SLI340 WELLZ HHR 25 LOC
File this flight plan on PilotEdge
Remarks:
Altitude:
(Current/Filed)
4,000ft
Speed:
(Current/Filed)
105kts
Departed: 12-Feb-20 04:25 PM
Arrived: 12-Feb-20 04:53 PM
Distance/Time
Traveled:
27nm/0:28
Distance/Time
To Go:
Arrived

Flight Plot

Page will automatically refresh every two minutes.


Map Options




Map Legend


Flown Route
Filed Route
Departure Airport
Arrival Airport
Navaid (VOR, NDB)
Fix

Horizontal Profiles

Position Reports

Time Latitude Longitude Heading Altitude Ground
Speed
12-Feb-20 16:02 33.675754 -117.871532 220 59ft 0kts
12-Feb-20 16:03 33.675754 -117.871532 220 59ft 0kts
12-Feb-20 16:04 33.675754 -117.871532 220 59ft 0kts
12-Feb-20 16:05 33.675754 -117.871532 220 59ft 0kts
12-Feb-20 16:06 33.675754 -117.871532 220 59ft 0kts
12-Feb-20 16:07 33.675754 -117.871532 220 59ft 0kts
12-Feb-20 16:08 33.675754 -117.871532 220 59ft 0kts
12-Feb-20 16:09 33.675754 -117.871532 220 59ft 0kts
12-Feb-20 16:10 33.675754 -117.871532 220 59ft 0kts
12-Feb-20 16:11 33.675754 -117.871532 220 59ft 0kts
12-Feb-20 16:12 33.675754 -117.871532 220 59ft 0kts
12-Feb-20 16:13 33.675754 -117.871532 220 59ft 0kts
12-Feb-20 16:14 33.675754 -117.871532 220 59ft 0kts
12-Feb-20 16:15 33.675754 -117.871532 220 59ft 0kts
12-Feb-20 16:16 33.675754 -117.871532 220 59ft 0kts
12-Feb-20 16:18 33.675754 -117.871532 220 59ft 0kts
12-Feb-20 16:19 33.675754 -117.871532 220 59ft 0kts
12-Feb-20 16:20 33.675726 -117.871542 183 59ft 1kts
12-Feb-20 16:21 33.675356 -117.871084 128 59ft 6kts
12-Feb-20 16:22 33.678115 -117.868788 32 59ft 15kts
12-Feb-20 16:23 33.680975 -117.867168 28 59ft 6kts
12-Feb-20 16:24 33.681229 -117.866544 108 59ft 0kts
12-Feb-20 16:25 33.679562 -117.866356 208 59ft 45kts
12-Feb-20 16:26 33.664254 -117.880685 234 961ft 74kts
12-Feb-20 16:27 33.652024 -117.900097 234 1965ft 76kts
12-Feb-20 16:28 33.636416 -117.926217 234 2053ft 108kts
12-Feb-20 16:29 33.625027 -117.944325 231 1984ft 102kts
12-Feb-20 16:30 33.607904 -117.970749 237 2192ft 105kts
12-Feb-20 16:31 33.621919 -117.989739 333 2985ft 96kts
12-Feb-20 16:32 33.646654 -117.999933 341 3733ft 96kts
12-Feb-20 16:33 33.673161 -118.009615 336 4062ft 96kts
12-Feb-20 16:33 33.695074 -118.017543 343 3928ft 100kts
12-Feb-20 16:35 33.725969 -118.026513 340 3462ft 98kts
12-Feb-20 16:36 33.752144 -118.034306 341 3077ft 96kts
12-Feb-20 16:36 33.774748 -118.041178 345 3071ft 109kts
12-Feb-20 16:37 33.803775 -118.050242 331 2960ft 110kts
12-Feb-20 16:39 33.833137 -118.064654 346 2773ft 109kts
12-Feb-20 16:40 33.856395 -118.078839 16 2750ft 113kts
12-Feb-20 16:40 33.880090 -118.072564 355 2777ft 111kts
12-Feb-20 16:41 33.908565 -118.077445 355 2793ft 111kts
12-Feb-20 16:43 33.934645 -118.089947 236 2669ft 109kts
12-Feb-20 16:43 33.932543 -118.115500 264 2358ft 102kts
12-Feb-20 16:44 33.931849 -118.145824 261 1654ft 110kts
12-Feb-20 16:45 33.931668 -118.174294 265 1602ft 93kts
12-Feb-20 16:46 33.928414 -118.203668 259 1609ft 93kts
12-Feb-20 16:47 33.928106 -118.227469 272 1373ft 84kts
12-Feb-20 16:48 33.926418 -118.251354 261 986ft 80kts
12-Feb-20 16:49 33.925517 -118.274160 265 617ft 74kts
12-Feb-20 16:50 33.924174 -118.298623 266 639ft 85kts
12-Feb-20 16:51 33.923551 -118.320525 263 230ft 62kts
12-Feb-20 16:52 33.922708 -118.331459 172 59ft 0kts
12-Feb-20 16:53 33.922711 -118.328337 85 56ft 20kts
12-Feb-20 16:54 33.922595 -118.327682 351 56ft 0kts
12-Feb-20 16:55 33.922595 -118.327682 351 56ft 0kts
12-Feb-20 16:56 33.922595 -118.327682 351 56ft 0kts
12-Feb-20 16:57 33.922595 -118.327682 351 56ft 0kts
12-Feb-20 16:58 33.922595 -118.327682 351 56ft 0kts
12-Feb-20 16:59 33.922595 -118.327682 351 56ft 0kts
12-Feb-20 17:00 33.922595 -118.327682 351 56ft 0kts
12-Feb-20 17:01 33.922595 -118.327682 351 56ft 0kts
12-Feb-20 17:02 33.922595 -118.327682 351 56ft 0kts
12-Feb-20 17:03 33.922595 -118.327682 351 56ft 0kts
12-Feb-20 17:04 33.922595 -118.327682 351 56ft 0kts
12-Feb-20 17:05 33.922595 -118.327682 351 56ft 0kts

Navigation Log

Ident Type
Flight plan parsing failed, navigation log unavailable